createdAt,value
2019-02-09T00:00:12.955Z,57.11
2019-02-09T00:01:29.031Z,57.18
2019-02-09T00:02:33.168Z,57.03
2019-02-09T00:03:37.785Z,57.03
2019-02-09T00:04:42.108Z,57.07
2019-02-09T00:05:46.105Z,57.06
2019-02-09T00:06:50.097Z,57.01
2019-02-09T00:07:54.403Z,56.82
2019-02-09T00:08:58.983Z,56.75
2019-02-09T00:10:03.205Z,56.83
2019-02-09T00:11:07.643Z,56.83
2019-02-09T00:12:11.638Z,56.89
2019-02-09T00:13:15.982Z,56.84
2019-02-09T00:14:19.977Z,56.93
2019-02-09T00:15:23.980Z,56.92
2019-02-09T00:16:27.976Z,56.89
2019-02-09T00:17:32.252Z,56.96
2019-02-09T00:18:36.585Z,56.99
2019-02-09T00:19:40.575Z,57.06
2019-02-09T00:20:44.572Z,57.10
2019-02-09T00:21:48.485Z,56.91
2019-02-09T00:22:52.472Z,56.82
2019-02-09T00:23:56.457Z,56.70
2019-02-09T00:25:00.727Z,56.85
2019-02-09T00:26:04.715Z,56.77
2019-02-09T00:27:08.950Z,56.68
2019-02-09T00:28:12.965Z,56.65
2019-02-09T00:29:16.948Z,56.75
2019-02-09T00:30:21.048Z,56.76
2019-02-09T00:31:25.525Z,56.85
2019-02-09T00:32:29.750Z,56.86
2019-02-09T00:33:34.238Z,56.89
2019-02-09T00:34:38.479Z,56.90
2019-02-09T00:35:42.643Z,56.85
2019-02-09T00:36:47.139Z,56.75
2019-02-09T00:37:51.370Z,56.71
2019-02-09T00:38:55.280Z,56.60
2019-02-09T00:39:59.253Z,56.61
2019-02-09T00:41:03.245Z,56.58
2019-02-09T00:42:07.218Z,56.47
2019-02-09T00:43:11.447Z,56.32
2019-02-09T00:44:15.425Z,56.14
2019-02-09T00:45:19.972Z,55.96
2019-02-09T00:46:24.206Z,55.84
2019-02-09T00:47:28.198Z,55.72
2019-02-09T00:48:32.296Z,55.61
2019-02-09T00:49:36.894Z,55.25
2019-02-09T00:50:40.901Z,55.10
2019-02-09T00:51:44.917Z,54.90
2019-02-09T00:52:48.902Z,54.59
2019-02-09T00:53:53.060Z,54.46
2019-02-09T00:54:57.046Z,54.33
2019-02-09T00:56:01.304Z,54.31
2019-02-09T00:57:05.429Z,54.14
2019-02-09T00:58:09.411Z,54.04
2019-02-09T00:59:13.763Z,53.89
2019-02-09T01:00:22.533Z,53.81
2019-02-09T01:01:26.838Z,53.78
2019-02-09T01:02:30.824Z,53.57
2019-02-09T01:03:34.802Z,53.46
2019-02-09T01:04:38.803Z,53.31
2019-02-09T01:05:44.934Z,53.21
2019-02-09T01:06:49.301Z,53.16
2019-02-09T01:07:53.322Z,53.07
2019-02-09T01:08:57.429Z,53.01
2019-02-09T01:10:01.714Z,52.88
2019-02-09T01:11:05.908Z,52.83
2019-02-09T01:12:10.253Z,52.80
2019-02-09T01:13:14.445Z,52.79
2019-02-09T01:14:19.088Z,52.62
2019-02-09T01:15:23.083Z,52.62
2019-02-09T01:16:27.398Z,52.55
2019-02-09T01:17:31.631Z,52.49
2019-02-09T01:18:35.973Z,52.37
2019-02-09T01:19:39.956Z,52.33
2019-02-09T01:20:43.938Z,52.18
2019-02-09T01:21:48.284Z,51.98
2019-02-09T01:22:53.000Z,51.85
2019-02-09T01:23:57.308Z,51.75
2019-02-09T01:25:01.749Z,51.58
2019-02-09T01:26:05.954Z,51.49
2019-02-09T01:27:10.336Z,51.42
2019-02-09T01:28:14.539Z,51.29
2019-02-09T01:29:18.795Z,50.96
2019-02-09T01:30:24.523Z,50.82
2019-02-09T01:31:29.769Z,50.83
2019-02-09T01:32:33.851Z,50.84
2019-02-09T01:33:37.842Z,50.90
2019-02-09T01:34:41.832Z,50.95
2019-02-09T01:35:46.166Z,51.03
2019-02-09T01:36:50.437Z,51.03
2019-02-09T01:37:54.426Z,51.10
2019-02-09T01:38:58.798Z,51.11
2019-02-09T01:40:03.505Z,51.09
2019-02-09T01:41:07.486Z,51.11
2019-02-09T01:42:11.486Z,51.17
2019-02-09T01:43:15.724Z,51.17
2019-02-09T01:44:19.989Z,51.12
2019-02-09T01:45:26.041Z,51.02
2019-02-09T01:46:30.059Z,51.03
2019-02-09T01:47:34.274Z,51.01
2019-02-09T01:48:38.646Z,51.03
2019-02-09T01:49:42.626Z,51.04
2019-02-09T01:50:46.896Z,51.05
2019-02-09T01:51:51.160Z,51.02
2019-02-09T01:52:55.556Z,50.96
2019-02-09T01:53:59.884Z,50.93
2019-02-09T01:55:04.833Z,50.85
2019-02-09T01:56:09.111Z,50.78
2019-02-09T01:57:13.124Z,50.68
2019-02-09T01:58:17.317Z,50.65
2019-02-09T01:59:21.828Z,50.55
2019-02-09T02:00:31.331Z,50.45
2019-02-09T02:01:35.480Z,50.47
2019-02-09T02:02:40.233Z,50.41
2019-02-09T02:03:44.720Z,50.50
2019-02-09T02:04:48.956Z,50.58
2019-02-09T02:05:52.923Z,50.66
2019-02-09T02:06:56.903Z,50.84
2019-02-09T02:08:01.230Z,51.15
2019-02-09T02:09:08.051Z,51.47
2019-02-09T02:10:18.940Z,51.54
2019-02-09T02:11:23.185Z,51.52
2019-02-09T02:12:27.419Z,51.48
2019-02-09T02:13:32.074Z,51.56
2019-02-09T02:14:36.052Z,51.74
2019-02-09T02:15:40.639Z,52.04
2019-02-09T02:16:44.612Z,52.21
2019-02-09T02:17:49.087Z,52.42
2019-02-09T02:18:53.437Z,52.61
2019-02-09T02:19:57.415Z,52.62
2019-02-09T02:21:01.390Z,52.64
2019-02-09T02:22:05.362Z,52.55
2019-02-09T02:23:09.378Z,52.28
2019-02-09T02:24:13.576Z,52.41
2019-02-09T02:25:18.466Z,52.66
2019-02-09T02:26:22.694Z,52.80
2019-02-09T02:27:26.907Z,52.88
2019-02-09T02:28:31.707Z,52.94
2019-02-09T02:29:35.922Z,52.92
2019-02-09T02:30:40.002Z,53.42
2019-02-09T02:31:44.218Z,53.78
2019-02-09T02:32:48.122Z,54.08
2019-02-09T02:33:52.364Z,54.37
2019-02-09T02:34:56.337Z,54.71
2019-02-09T02:36:00.554Z,54.96
2019-02-09T02:37:05.048Z,55.19
2019-02-09T02:38:09.416Z,55.29
2019-02-09T02:39:13.399Z,55.33
2019-02-09T02:40:18.203Z,55.41
2019-02-09T02:41:22.358Z,55.40
2019-02-09T02:42:26.597Z,55.50
2019-02-09T02:43:30.827Z,55.63
2019-02-09T02:44:34.804Z,55.70
2019-02-09T02:45:38.777Z,55.72
2019-02-09T02:46:42.755Z,55.72
2019-02-09T02:47:47.083Z,55.74
2019-02-09T02:48:51.427Z,55.80
2019-02-09T02:49:55.345Z,55.85
2019-02-09T02:50:59.682Z,55.86
2019-02-09T02:52:03.674Z,55.95
2019-02-09T02:53:07.930Z,56.11
2019-02-09T02:54:12.224Z,56.20
2019-02-09T02:55:24.288Z,56.25
2019-02-09T02:56:28.285Z,56.33
2019-02-09T02:57:33.208Z,56.43
2019-02-09T02:58:37.455Z,56.60
2019-02-09T02:59:42.335Z,56.72
2019-02-09T03:00:46.670Z,56.81
2019-02-09T03:01:50.976Z,56.86
2019-02-09T03:02:55.280Z,56.88
2019-02-09T03:03:59.149Z,56.95
2019-02-09T03:05:03.119Z,57.06
2019-02-09T03:06:07.335Z,57.14
2019-02-09T03:07:12.743Z,57.27
2019-02-09T03:08:16.667Z,57.38
2019-02-09T03:09:20.671Z,57.47
2019-02-09T03:10:25.064Z,57.50
2019-02-09T03:11:29.052Z,57.58
2019-02-09T03:12:33.077Z,57.61
2019-02-09T03:13:37.264Z,57.76
2019-02-09T03:14:41.835Z,57.84
2019-02-09T03:15:46.249Z,57.99
2019-02-09T03:16:50.547Z,58.07
2019-02-09T03:17:54.897Z,58.16
2019-02-09T03:18:58.859Z,58.22
2019-02-09T03:20:03.072Z,58.21
2019-02-09T03:21:07.058Z,58.23
2019-02-09T03:22:11.007Z,58.32
2019-02-09T03:23:15.222Z,58.32
2019-02-09T03:24:19.132Z,58.36
2019-02-09T03:25:25.444Z,58.47
2019-02-09T03:26:29.438Z,58.65
2019-02-09T03:27:33.743Z,58.72
2019-02-09T03:28:38.160Z,58.75
2019-02-09T03:29:42.146Z,58.95
2019-02-09T03:30:48.612Z,59.06
2019-02-09T03:31:51.892Z,59.14
2019-02-09T03:32:55.874Z,59.28
2019-02-09T03:33:59.842Z,59.40
2019-02-09T03:35:04.838Z,59.59
2019-02-09T03:36:09.168Z,59.75
2019-02-09T03:37:13.450Z,59.92
2019-02-09T03:38:18.349Z,60.09
2019-02-09T03:39:22.558Z,60.23
2019-02-09T03:40:26.994Z,60.34
2019-02-09T03:41:31.595Z,60.43
2019-02-09T03:42:35.869Z,60.55
2019-02-09T03:43:40.219Z,60.60
2019-02-09T03:44:44.507Z,60.74
2019-02-09T03:45:48.831Z,60.76
2019-02-09T03:46:52.818Z,60.79
2019-02-09T03:47:57.134Z,60.81
2019-02-09T03:49:01.436Z,60.85
2019-02-09T03:50:07.278Z,60.88
2019-02-09T03:51:11.720Z,60.96
2019-02-09T03:52:15.947Z,61.02
2019-02-09T03:53:20.812Z,60.94
2019-02-09T03:54:25.052Z,60.94
2019-02-09T03:55:29.455Z,60.81
2019-02-09T03:56:33.500Z,60.88
2019-02-09T03:57:37.484Z,60.96
2019-02-09T03:58:41.472Z,60.89
2019-02-09T03:59:45.458Z,60.90
2019-02-09T04:00:55.277Z,60.97
2019-02-09T04:01:55.449Z,61.03
2019-02-09T04:02:59.910Z,61.07
2019-02-09T04:04:04.917Z,61.04
2019-02-09T04:05:09.744Z,60.99
2019-02-09T04:06:14.509Z,60.98
2019-02-09T04:07:18.778Z,60.80
2019-02-09T04:08:23.071Z,60.91
2019-02-09T04:09:27.099Z,61.03
2019-02-09T04:10:31.080Z,61.09
2019-02-09T04:11:35.182Z,60.96
2019-02-09T04:12:39.691Z,60.91
2019-02-09T04:13:43.672Z,60.93
2019-02-09T04:14:47.897Z,60.96
2019-02-09T04:15:51.875Z,60.99
2019-02-09T04:16:56.042Z,60.98
2019-02-09T04:18:00.023Z,60.90
2019-02-09T04:19:04.004Z,60.98
2019-02-09T04:20:09.853Z,60.99
2019-02-09T04:21:14.519Z,60.89
2019-02-09T04:22:18.743Z,60.88
2019-02-09T04:23:22.720Z,60.93
2019-02-09T04:24:26.709Z,60.98
2019-02-09T04:25:30.614Z,60.97
2019-02-09T04:26:34.605Z,60.98
2019-02-09T04:27:39.369Z,61.05
2019-02-09T04:28:43.605Z,61.05
2019-02-09T04:29:47.586Z,60.93
2019-02-09T04:30:51.564Z,61.01
2019-02-09T04:31:56.090Z,61.03
2019-02-09T04:33:00.138Z,61.06
2019-02-09T04:34:04.564Z,61.09
2019-02-09T04:35:08.611Z,61.05
2019-02-09T04:36:12.588Z,61.08
2019-02-09T04:37:16.841Z,61.05
2019-02-09T04:38:21.067Z,61.07
2019-02-09T04:39:25.144Z,61.07
2019-02-09T04:40:31.031Z,61.01
2019-02-09T04:41:35.440Z,60.99
2019-02-09T04:42:39.433Z,60.98
2019-02-09T04:43:43.606Z,60.98
2019-02-09T04:44:48.253Z,60.90
2019-02-09T04:45:52.141Z,60.95
2019-02-09T04:46:56.136Z,60.97
2019-02-09T04:48:00.463Z,60.99
2019-02-09T04:49:04.451Z,60.95
2019-02-09T04:50:09.695Z,60.91
2019-02-09T04:51:14.272Z,60.96
2019-02-09T04:52:18.994Z,60.96
2019-02-09T04:53:23.235Z,60.98
2019-02-09T04:54:27.707Z,60.97
2019-02-09T04:55:31.932Z,60.92
2019-02-09T04:56:36.119Z,60.82
2019-02-09T04:57:40.469Z,60.79
2019-02-09T04:58:44.452Z,60.79
2019-02-09T04:59:48.442Z,60.77
2019-02-09T05:00:52.434Z,60.79
2019-02-09T05:01:56.424Z,60.71
2019-02-09T05:03:01.298Z,60.65
2019-02-09T05:04:05.585Z,60.58
2019-02-09T05:05:09.909Z,60.52
2019-02-09T05:06:13.823Z,60.46
2019-02-09T05:07:17.735Z,60.40
2019-02-09T05:08:21.869Z,60.34
2019-02-09T05:09:25.787Z,60.30
2019-02-09T05:10:29.778Z,60.29
2019-02-09T05:11:33.766Z,60.26
2019-02-09T05:12:37.762Z,60.23
2019-02-09T05:13:42.410Z,60.21
2019-02-09T05:14:46.591Z,60.16
2019-02-09T05:15:50.989Z,60.15
2019-02-09T05:16:55.210Z,60.13
2019-02-09T05:17:59.365Z,60.13
2019-02-09T05:19:03.394Z,60.05
2019-02-09T05:20:10.388Z,60.08
2019-02-09T05:21:14.382Z,60.00
2019-02-09T05:22:18.473Z,59.99
2019-02-09T05:23:22.490Z,59.86
2019-02-09T05:24:26.468Z,59.78
2019-02-09T05:25:31.029Z,59.79
2019-02-09T05:26:35.352Z,59.82
2019-02-09T05:27:39.595Z,59.70
2019-02-09T05:28:43.997Z,59.55
2019-02-09T05:29:48.448Z,59.56
2019-02-09T05:30:52.436Z,59.58
2019-02-09T05:31:56.958Z,59.60
2019-02-09T05:33:01.576Z,59.68
2019-02-09T05:34:06.291Z,59.71
2019-02-09T05:35:10.887Z,59.73
2019-02-09T05:36:14.883Z,59.78
2019-02-09T05:37:19.347Z,59.88
2019-02-09T05:38:23.339Z,59.99
2019-02-09T05:39:27.670Z,59.92
2019-02-09T05:40:31.942Z,59.87
2019-02-09T05:41:35.940Z,59.87
2019-02-09T05:42:40.245Z,59.93
2019-02-09T05:43:44.567Z,60.05
2019-02-09T05:44:48.563Z,60.18
2019-02-09T05:45:53.269Z,60.38
2019-02-09T05:46:57.478Z,60.53
2019-02-09T05:48:01.463Z,60.64
2019-02-09T05:49:05.843Z,60.82
2019-02-09T05:50:11.325Z,60.96
2019-02-09T05:51:15.236Z,61.21
2019-02-09T05:52:19.232Z,61.43
2019-02-09T05:53:23.864Z,61.64
2019-02-09T05:54:27.774Z,61.81
2019-02-09T05:55:31.997Z,61.97
2019-02-09T05:56:35.967Z,62.13
2019-02-09T05:57:39.951Z,62.18
2019-02-09T05:58:44.204Z,62.22
2019-02-09T05:59:48.122Z,62.28
2019-02-09T06:00:52.095Z,62.20
2019-02-09T06:01:56.333Z,62.22
2019-02-09T06:03:00.484Z,62.28
2019-02-09T06:04:04.665Z,62.33
2019-02-09T06:05:09.684Z,62.38
2019-02-09T06:06:13.659Z,62.42
2019-02-09T06:07:17.881Z,62.35
2019-02-09T06:08:21.790Z,62.39
2019-02-09T06:09:26.023Z,62.41
2019-02-09T06:10:30.541Z,62.43
2019-02-09T06:11:34.496Z,62.41
2019-02-09T06:12:38.488Z,62.42
2019-02-09T06:13:42.468Z,62.43
2019-02-09T06:14:46.460Z,62.45
2019-02-09T06:15:50.948Z,62.39
2019-02-09T06:16:55.173Z,62.36
2019-02-09T06:17:59.157Z,62.29
2019-02-09T06:19:03.144Z,62.25
2019-02-09T06:20:08.130Z,62.26
2019-02-09T06:21:12.110Z,62.25
2019-02-09T06:22:16.089Z,62.25
2019-02-09T06:23:20.327Z,62.31
2019-02-09T06:24:24.233Z,62.31
2019-02-09T06:25:28.319Z,62.39
2019-02-09T06:26:32.231Z,62.41
2019-02-09T06:27:36.381Z,62.47
2019-02-09T06:28:40.648Z,62.40
2019-02-09T06:29:44.864Z,62.41
2019-02-09T06:30:48.779Z,62.39
2019-02-09T06:31:52.765Z,62.34
2019-02-09T06:32:56.996Z,62.31
2019-02-09T06:34:01.223Z,62.26
2019-02-09T06:35:05.963Z,62.21
2019-02-09T06:36:10.450Z,62.21
2019-02-09T06:37:14.279Z,62.21
2019-02-09T06:38:18.533Z,62.26
2019-02-09T06:39:22.687Z,62.27
2019-02-09T06:40:26.771Z,62.24
2019-02-09T06:41:30.705Z,62.29
2019-02-09T06:42:34.945Z,62.34
2019-02-09T06:43:39.355Z,62.40
2019-02-09T06:44:43.598Z,62.51
2019-02-09T06:45:47.605Z,62.56
2019-02-09T06:46:51.517Z,62.59
2019-02-09T06:48:14.611Z,62.57
2019-02-09T06:49:18.524Z,62.61
2019-02-09T06:50:28.454Z,62.66
2019-02-09T06:51:32.452Z,62.78
2019-02-09T06:52:36.447Z,62.80
2019-02-09T06:53:41.288Z,62.86
2019-02-09T06:54:45.397Z,62.96
2019-02-09T06:55:49.391Z,63.02
2019-02-09T06:56:53.382Z,63.11
2019-02-09T06:57:57.689Z,63.18
2019-02-09T06:59:02.023Z,63.20
2019-02-09T07:00:07.714Z,63.17
2019-02-09T07:01:12.297Z,63.06
2019-02-09T07:02:16.555Z,62.92
2019-02-09T07:03:20.465Z,62.77
2019-02-09T07:04:24.460Z,62.75
2019-02-09T07:05:28.774Z,62.74
2019-02-09T07:06:33.134Z,62.73
2019-02-09T07:07:37.113Z,62.76
2019-02-09T07:08:41.095Z,62.78
2019-02-09T07:09:45.117Z,62.80
2019-02-09T07:10:49.444Z,62.83
2019-02-09T07:11:53.992Z,62.88
2019-02-09T07:12:58.304Z,62.95
2019-02-09T07:14:02.702Z,62.96
2019-02-09T07:15:08.595Z,62.99
2019-02-09T07:16:12.865Z,63.01
2019-02-09T07:17:16.869Z,63.00
2019-02-09T07:18:21.147Z,63.02
2019-02-09T07:19:26.153Z,63.04
2019-02-09T07:20:30.750Z,63.00
2019-02-09T07:21:35.317Z,62.97
2019-02-09T07:22:39.226Z,62.92
2019-02-09T07:23:43.531Z,62.89
2019-02-09T07:24:47.694Z,62.81
2019-02-09T07:25:51.854Z,62.77
2019-02-09T07:26:55.985Z,62.67
2019-02-09T07:28:00.881Z,62.64
2019-02-09T07:29:05.476Z,62.60
2019-02-09T07:30:13.067Z,62.58
2019-02-09T07:31:16.982Z,62.61
2019-02-09T07:32:21.276Z,62.54
2019-02-09T07:33:25.269Z,62.43
2019-02-09T07:34:29.251Z,62.37
2019-02-09T07:35:33.236Z,62.30
2019-02-09T07:36:37.507Z,62.32
2019-02-09T07:37:41.753Z,62.29
2019-02-09T07:38:45.902Z,62.28
2019-02-09T07:39:50.099Z,62.15
2019-02-09T07:40:54.716Z,62.14
2019-02-09T07:41:58.724Z,62.06
2019-02-09T07:43:03.336Z,62.07
2019-02-09T07:44:07.547Z,62.05
2019-02-09T07:45:13.894Z,61.99
2019-02-09T07:46:17.880Z,61.79
2019-02-09T07:47:21.809Z,61.75
2019-02-09T07:48:25.797Z,61.68
2019-02-09T07:49:30.513Z,61.68
2019-02-09T07:50:34.491Z,61.58
2019-02-09T07:51:38.819Z,61.60
2019-02-09T07:52:42.911Z,61.49
2019-02-09T07:53:46.946Z,61.46
2019-02-09T07:54:51.419Z,61.31
2019-02-09T07:55:55.418Z,61.20
2019-02-09T07:56:59.411Z,61.00
2019-02-09T07:58:03.827Z,60.92
2019-02-09T07:59:07.734Z,60.74
2019-02-09T08:00:15.025Z,60.57
2019-02-09T08:01:19.558Z,60.42
2019-02-09T08:02:23.652Z,60.23
2019-02-09T08:03:27.644Z,59.89
2019-02-09T08:04:31.620Z,59.68
2019-02-09T08:05:35.708Z,59.40
2019-02-09T08:06:41.296Z,59.05
2019-02-09T08:07:45.310Z,59.01
2019-02-09T08:08:49.802Z,58.99
2019-02-09T08:09:53.780Z,58.78
2019-02-09T08:10:57.762Z,58.45
2019-02-09T08:12:01.748Z,58.08
2019-02-09T08:13:07.437Z,57.89
2019-02-09T08:14:11.415Z,57.76
2019-02-09T08:15:20.503Z,57.50
2019-02-09T08:16:24.795Z,57.39
2019-02-09T08:17:29.691Z,57.28
2019-02-09T08:18:33.729Z,57.05
2019-02-09T08:19:37.716Z,56.91
2019-02-09T08:20:41.710Z,56.83
2019-02-09T08:21:46.004Z,56.87
2019-02-09T08:22:50.037Z,56.66
2019-02-09T08:23:53.986Z,56.61
2019-02-09T08:24:58.313Z,56.37
2019-02-09T08:26:02.296Z,56.30
2019-02-09T08:27:06.629Z,56.27
2019-02-09T08:28:11.136Z,56.08
2019-02-09T08:29:15.441Z,56.11
2019-02-09T08:30:22.114Z,55.75
2019-02-09T08:31:26.120Z,55.23
2019-02-09T08:32:31.406Z,55.41
2019-02-09T08:33:35.685Z,55.45
2019-02-09T08:34:39.801Z,55.45
2019-02-09T08:35:44.149Z,55.40
2019-02-09T08:36:48.141Z,55.34
2019-02-09T08:37:52.133Z,55.11
2019-02-09T08:38:56.130Z,55.05
2019-02-09T08:40:00.373Z,54.84
2019-02-09T08:41:04.826Z,54.46
2019-02-09T08:42:09.132Z,54.52
2019-02-09T08:43:13.295Z,54.43
2019-02-09T08:44:17.270Z,54.41
2019-02-09T08:45:21.487Z,54.35
2019-02-09T08:46:25.519Z,53.99
2019-02-09T08:47:30.114Z,53.55
2019-02-09T08:48:34.458Z,53.31
2019-02-09T08:49:38.736Z,53.26
2019-02-09T08:51:03.320Z,53.22
2019-02-09T08:52:07.929Z,53.19
2019-02-09T08:53:12.025Z,53.11
2019-02-09T08:54:16.025Z,52.81
2019-02-09T08:55:20.570Z,52.56
2019-02-09T08:56:24.854Z,52.42
2019-02-09T08:57:28.876Z,51.74
2019-02-09T08:58:32.869Z,51.70
2019-02-09T08:59:36.800Z,51.83
2019-02-09T09:00:40.858Z,51.94
2019-02-09T09:01:44.917Z,52.04
2019-02-09T09:02:48.929Z,51.82
2019-02-09T09:03:53.101Z,51.63
2019-02-09T09:04:57.281Z,51.50
2019-02-09T09:06:01.626Z,51.16
2019-02-09T09:07:06.970Z,50.96
2019-02-09T09:08:10.957Z,50.81
2019-02-09T09:09:15.454Z,51.14
2019-02-09T09:10:20.364Z,51.27
2019-02-09T09:11:24.844Z,51.21
2019-02-09T09:12:28.694Z,51.25
2019-02-09T09:13:32.935Z,51.33
2019-02-09T09:14:37.179Z,51.35
2019-02-09T09:15:46.616Z,51.41
2019-02-09T09:16:50.609Z,51.58
2019-02-09T09:17:55.195Z,51.66
2019-02-09T09:18:59.172Z,51.86
2019-02-09T09:20:03.180Z,51.75
2019-02-09T09:21:07.203Z,51.82
2019-02-09T09:22:11.115Z,51.96
2019-02-09T09:23:15.091Z,51.93
2019-02-09T09:24:19.379Z,51.93
2019-02-09T09:25:24.256Z,51.83
2019-02-09T09:26:28.739Z,51.78
2019-02-09T09:27:32.721Z,51.80
2019-02-09T09:28:36.955Z,51.71
2019-02-09T09:29:40.957Z,51.69
2019-02-09T09:30:45.445Z,51.55
2019-02-09T09:31:49.824Z,51.44
2019-02-09T09:32:54.052Z,51.30
2019-02-09T09:33:58.046Z,51.29
2019-02-09T09:35:02.046Z,51.18
2019-02-09T09:36:06.711Z,51.24
2019-02-09T09:37:10.731Z,51.23
2019-02-09T09:38:14.714Z,51.25
2019-02-09T09:39:18.729Z,51.12
2019-02-09T09:40:27.936Z,51.15
2019-02-09T09:41:31.945Z,51.01
2019-02-09T09:42:36.175Z,50.88
2019-02-09T09:43:40.154Z,50.72
2019-02-09T09:44:44.437Z,50.74
2019-02-09T09:45:48.420Z,50.68
2019-02-09T09:46:52.578Z,50.62
2019-02-09T09:47:57.073Z,50.61
2019-02-09T09:49:01.066Z,50.60
2019-02-09T09:50:07.914Z,50.61
2019-02-09T09:51:11.922Z,50.64
2019-02-09T09:52:16.251Z,50.58
2019-02-09T09:53:20.561Z,50.54
2019-02-09T09:54:24.918Z,50.48
2019-02-09T09:55:29.283Z,50.49
2019-02-09T09:56:33.585Z,50.50
2019-02-09T09:57:37.928Z,50.48
2019-02-09T09:58:42.206Z,50.40
2019-02-09T09:59:46.641Z,50.40
2019-02-09T10:00:50.873Z,50.38
2019-02-09T10:01:56.549Z,50.35
2019-02-09T10:03:01.043Z,50.35
2019-02-09T10:04:05.624Z,50.11
2019-02-09T10:05:09.749Z,50.07
2019-02-09T10:06:13.735Z,50.13
2019-02-09T10:07:17.960Z,50.26
2019-02-09T10:08:24.419Z,50.20
2019-02-09T10:09:31.140Z,50.34
2019-02-09T10:10:35.411Z,50.40
2019-02-09T10:11:39.403Z,50.44
2019-02-09T10:12:43.385Z,50.35
2019-02-09T10:13:47.868Z,50.36
2019-02-09T10:14:52.345Z,50.40
2019-02-09T10:15:56.337Z,50.50
2019-02-09T10:17:00.823Z,50.67
2019-02-09T10:18:05.823Z,50.81
2019-02-09T10:19:10.042Z,50.67
2019-02-09T10:20:16.387Z,50.76
2019-02-09T10:21:20.318Z,50.82
2019-02-09T10:22:24.295Z,51.05
2019-02-09T10:23:28.248Z,51.16
2019-02-09T10:24:32.160Z,50.82
2019-02-09T10:25:36.331Z,50.98
2019-02-09T10:26:40.317Z,51.10
2019-02-09T10:27:45.013Z,51.13
2019-02-09T10:28:49.665Z,51.05
2019-02-09T10:29:54.535Z,51.02
2019-02-09T10:30:59.151Z,50.69
2019-02-09T10:32:03.257Z,50.58
2019-02-09T10:33:07.178Z,50.66
2019-02-09T10:34:11.433Z,50.18
2019-02-09T10:35:15.744Z,49.66
2019-02-09T10:36:20.056Z,49.33
2019-02-09T10:37:24.058Z,49.40
2019-02-09T10:38:28.103Z,49.38
2019-02-09T10:39:32.363Z,49.35
2019-02-09T10:40:36.347Z,49.25
2019-02-09T10:41:40.671Z,49.07
2019-02-09T10:42:45.119Z,48.93
2019-02-09T10:43:49.407Z,48.56
2019-02-09T10:44:53.899Z,48.30
2019-02-09T10:45:59.159Z,48.02
2019-02-09T10:47:03.502Z,48.18
2019-02-09T10:48:12.575Z,48.35
2019-02-09T10:49:15.638Z,48.49
2019-02-09T10:50:30.704Z,48.33
2019-02-09T10:51:34.693Z,48.27
2019-02-09T10:52:38.940Z,48.14
2019-02-09T10:53:42.930Z,47.92
2019-02-09T10:54:47.726Z,47.99
2019-02-09T10:55:52.034Z,47.73
2019-02-09T10:56:56.445Z,47.67
2019-02-09T10:58:00.863Z,47.88
2019-02-09T10:59:05.369Z,47.79
2019-02-09T11:00:14.049Z,47.78
2019-02-09T11:01:20.249Z,47.82
2019-02-09T11:02:24.543Z,47.54
2019-02-09T11:03:29.060Z,47.65
2019-02-09T11:04:35.455Z,48.00
2019-02-09T11:05:39.543Z,48.16
2019-02-09T11:06:43.643Z,48.00
2019-02-09T11:07:48.063Z,48.26
2019-02-09T11:08:52.806Z,48.37
2019-02-09T11:09:57.877Z,48.21
2019-02-09T11:11:01.871Z,48.14
2019-02-09T11:12:06.269Z,48.23
2019-02-09T11:13:10.449Z,48.00
2019-02-09T11:14:14.737Z,47.67
2019-02-09T11:15:19.486Z,47.50
2019-02-09T11:16:23.494Z,47.65
2019-02-09T11:17:27.766Z,47.87
2019-02-09T11:18:32.100Z,48.17
2019-02-09T11:19:36.010Z,48.21
2019-02-09T11:20:40.002Z,48.46
2019-02-09T11:21:44.279Z,48.75
2019-02-09T11:22:48.474Z,48.85
2019-02-09T11:23:54.279Z,48.94
2019-02-09T11:24:58.799Z,49.01
2019-02-09T11:26:02.793Z,49.13
2019-02-09T11:27:06.774Z,49.34
2019-02-09T11:28:11.695Z,49.11
2019-02-09T11:29:15.851Z,49.15
2019-02-09T11:30:21.538Z,48.98
2019-02-09T11:31:25.518Z,48.81
2019-02-09T11:32:29.740Z,48.75
2019-02-09T11:33:33.660Z,48.52
2019-02-09T11:34:37.640Z,48.48
2019-02-09T11:35:41.614Z,48.29
2019-02-09T11:36:45.850Z,47.96
2019-02-09T11:37:49.832Z,47.70
2019-02-09T11:38:53.827Z,47.30
2019-02-09T11:39:57.809Z,47.22
2019-02-09T11:41:02.056Z,47.01
2019-02-09T11:42:06.282Z,47.06
2019-02-09T11:43:10.265Z,47.09
2019-02-09T11:44:14.260Z,46.76
2019-02-09T11:45:20.492Z,46.71
2019-02-09T11:46:25.654Z,47.06
2019-02-09T11:47:29.731Z,47.25
2019-02-09T11:48:33.998Z,47.50
2019-02-09T11:49:38.757Z,47.79
2019-02-09T11:50:42.731Z,47.81
2019-02-09T11:51:46.969Z,47.39
2019-02-09T11:52:50.978Z,47.20
2019-02-09T11:53:54.981Z,46.85
2019-02-09T11:54:59.324Z,46.74
2019-02-09T11:56:03.314Z,46.26
2019-02-09T11:57:07.634Z,46.34
2019-02-09T11:58:12.031Z,46.39
2019-02-09T11:59:16.035Z,46.23
2019-02-09T12:00:25.985Z,46.01
2019-02-09T12:01:30.905Z,45.78
2019-02-09T12:02:35.214Z,45.76
2019-02-09T12:03:39.525Z,45.78
2019-02-09T12:04:43.793Z,46.01
2019-02-09T12:05:48.087Z,46.10
2019-02-09T12:06:52.332Z,45.88
2019-02-09T12:07:56.332Z,45.82
2019-02-09T12:09:00.613Z,45.69
2019-02-09T12:10:06.028Z,45.27
2019-02-09T12:11:10.320Z,44.38
2019-02-09T12:12:14.706Z,44.88
2019-02-09T12:13:18.703Z,44.54
2019-02-09T12:14:22.712Z,44.44
2019-02-09T12:15:31.968Z,44.63
2019-02-09T12:16:35.969Z,44.80
2019-02-09T12:17:39.966Z,44.73
2019-02-09T12:18:43.961Z,44.50
2019-02-09T12:19:47.977Z,44.18
2019-02-09T12:20:51.973Z,44.24
2019-02-09T12:21:56.533Z,44.04
2019-02-09T12:23:00.864Z,44.21
2019-02-09T12:24:04.852Z,44.52
2019-02-09T12:25:11.550Z,44.60
2019-02-09T12:26:15.574Z,44.59
2019-02-09T12:27:20.093Z,44.62
2019-02-09T12:28:24.158Z,44.66
2019-02-09T12:29:28.452Z,44.49
2019-02-09T12:30:34.401Z,44.68
2019-02-09T12:31:38.642Z,44.73
2019-02-09T12:32:42.766Z,44.60
2019-02-09T12:33:47.164Z,44.40
2019-02-09T12:34:51.404Z,44.34
2019-02-09T12:35:55.672Z,44.16
2019-02-09T12:37:00.284Z,44.02
2019-02-09T12:38:05.124Z,43.97
2019-02-09T12:39:10.629Z,44.02
2019-02-09T12:40:19.000Z,43.97
2019-02-09T12:41:23.001Z,44.03
2019-02-09T12:42:27.006Z,43.17
2019-02-09T12:43:31.313Z,43.04
2019-02-09T12:44:35.306Z,42.91
2019-02-09T12:45:39.945Z,43.12
2019-02-09T12:46:43.953Z,43.49
2019-02-09T12:47:48.402Z,43.69
2019-02-09T12:48:52.602Z,43.99
2019-02-09T12:49:56.872Z,44.53
2019-02-09T12:51:01.261Z,45.16
2019-02-09T12:52:05.981Z,45.91
2019-02-09T12:53:10.200Z,46.35
2019-02-09T12:54:14.501Z,46.68
2019-02-09T12:55:19.020Z,46.95
2019-02-09T12:56:23.360Z,46.83
2019-02-09T12:57:27.591Z,46.88
2019-02-09T12:58:31.618Z,47.11
2019-02-09T12:59:35.851Z,47.17
2019-02-09T13:00:39.963Z,47.54
2019-02-09T13:01:43.952Z,47.83
2019-02-09T13:02:48.052Z,48.06
2019-02-09T13:03:52.097Z,48.28
2019-02-09T13:04:56.096Z,48.49
2019-02-09T13:06:00.138Z,48.58
2019-02-09T13:07:04.129Z,48.36
2019-02-09T13:08:08.175Z,48.19
2019-02-09T13:09:12.369Z,48.13
2019-02-09T13:10:16.996Z,48.22
2019-02-09T13:11:20.915Z,48.29
2019-02-09T13:12:25.423Z,48.17
2019-02-09T13:13:29.407Z,48.03
2019-02-09T13:14:33.393Z,48.06
2019-02-09T13:15:37.639Z,48.31
2019-02-09T13:16:42.402Z,48.28
2019-02-09T13:17:46.648Z,48.66
2019-02-09T13:18:50.890Z,48.88
2019-02-09T13:19:55.624Z,48.89
2019-02-09T13:20:59.865Z,49.12
2019-02-09T13:22:03.870Z,49.42
2019-02-09T13:23:09.264Z,49.82
2019-02-09T13:24:13.420Z,50.34
2019-02-09T13:25:17.509Z,50.41
2019-02-09T13:26:22.281Z,50.79
2019-02-09T13:27:26.267Z,51.21
2019-02-09T13:28:30.241Z,51.46
2019-02-09T13:29:34.242Z,51.74
2019-02-09T13:30:38.740Z,51.95
2019-02-09T13:31:42.657Z,52.23
2019-02-09T13:32:46.897Z,52.49
2019-02-09T13:33:51.441Z,52.33
2019-02-09T13:34:55.873Z,52.31
2019-02-09T13:35:59.943Z,52.16
2019-02-09T13:37:04.568Z,52.21
2019-02-09T13:38:08.620Z,52.25
2019-02-09T13:39:13.018Z,52.25
2019-02-09T13:40:18.514Z,52.03
2019-02-09T13:41:22.826Z,52.02
2019-02-09T13:42:26.878Z,52.22
2019-02-09T13:43:30.866Z,52.00
2019-02-09T13:44:34.860Z,52.17
2019-02-09T13:45:41.350Z,52.32
2019-02-09T13:46:45.294Z,52.54
2019-02-09T13:47:49.289Z,52.83
2019-02-09T13:48:53.594Z,52.98
2019-02-09T13:49:57.949Z,53.50